Time;durP1;ratioP1;P1;durP2;ratioP2;P2;SDS_P1;SDS_P2;PMS_P1;PMS_P2;Temp;Humidity;BMP_temperature;BMP_pressure;BME280_temperature;BME280_humidity;BME280_pressure;Samples;Min_cycle;Max_cycle;Signal;HPM_P1;HPM_P2
2023/01/28 00:00:12;;;;;;;16.23;7.63;;;;;;;2.63;88.70;102866.66;4948463;28;20117;-95
2023/01/28 00:02:38;;;;;;;16.40;8.02;;;;;;;2.61;88.01;102857.91;4948969;28;20117;-95
2023/01/28 00:05:03;;;;;;;15.63;7.72;;;;;;;2.57;87.43;102855.81;4948676;28;20062;-95
2023/01/28 00:07:39;;;;;;;16.20;7.95;;;;;;;2.55;87.63;102855.69;4948482;28;20609;-94
2023/01/28 00:10:05;;;;;;;16.52;7.55;;;;;;;2.56;88.26;102872.00;4949029;28;20164;-95
2023/01/28 00:12:30;;;;;;;15.98;7.72;;;;;;;2.55;88.46;102863.41;4949345;28;20485;-95
2023/01/28 00:14:58;;;;;;;17.30;7.88;;;;;;;2.57;88.85;102860.97;4961123;28;20033;-95
2023/01/28 00:17:23;;;;;;;17.20;7.47;;;;;;;2.58;88.81;102873.97;4948547;28;20027;-93
2023/01/28 00:19:48;;;;;;;16.23;7.72;;;;;;;2.61;89.50;102873.34;4948174;28;20093;-95
2023/01/28 00:22:14;;;;;;;16.50;8.20;;;;;;;2.61;89.13;102869.09;4948629;28;20015;-95
2023/01/28 00:24:42;;;;;;;14.98;7.50;;;;;;;2.65;88.62;102877.06;4961537;28;20480;-94
2023/01/28 00:27:11;;;;;;;18.05;8.18;;;;;;;2.63;88.68;102870.91;4948691;28;20038;-94
2023/01/28 00:29:36;;;;;;;18.67;8.75;;;;;;;2.64;89.60;102875.28;4948767;28;20031;-95
2023/01/28 00:32:01;;;;;;;16.92;7.43;;;;;;;2.65;89.77;102874.50;4947970;28;20100;-95
2023/01/28 00:34:32;;;;;;;16.27;7.28;;;;;;;2.61;88.34;102871.66;4948709;28;20134;-94
2023/01/28 00:36:58;;;;;;;17.20;7.13;;;;;;;2.57;88.78;102876.41;4948476;28;20030;-93
2023/01/28 00:39:25;;;;;;;17.00;7.80;;;;;;;2.54;88.57;102886.44;4948252;28;20045;-94
2023/01/28 00:41:51;;;;;;;18.90;8.20;;;;;;;2.52;89.08;102885.38;4946743;28;20063;-95
2023/01/28 00:44:17;;;;;;;17.17;7.18;;;;;;;2.51;89.17;102879.34;4951275;28;20050;-94
2023/01/28 00:46:42;;;;;;;17.38;7.78;;;;;;;2.52;88.84;102886.28;4951425;28;20121;-94
2023/01/28 00:49:08;;;;;;;16.88;7.18;;;;;;;2.49;88.44;102883.44;4951701;28;20039;-94
2023/01/28 00:51:34;;;;;;;17.88;7.75;;;;;;;2.49;88.46;102888.59;4952825;28;20117;-94
2023/01/28 00:53:59;;;;;;;17.42;7.88;;;;;;;2.51;88.71;102894.78;4951469;28;20462;-94
2023/01/28 00:56:25;;;;;;;14.93;7.22;;;;;;;2.50;88.29;102890.38;4951883;28;20066;-94
2023/01/28 00:58:50;;;;;;;16.52;7.80;;;;;;;2.51;88.24;102886.16;4956828;28;20345;-94
2023/01/28 01:01:24;;;;;;;16.30;7.53;;;;;;;2.50;88.09;102894.63;4969124;28;20039;-95
2023/01/28 01:04:02;;;;;;;18.15;7.85;;;;;;;2.51;88.46;102894.78;4951628;28;20023;-95
2023/01/28 01:06:36;;;;;;;17.58;7.68;;;;;;;2.52;88.10;102894.00;4951697;28;20034;-94
2023/01/28 01:09:04;;;;;;;15.18;7.47;;;;;;;2.52;88.81;102899.16;4950993;28;20034;-95
2023/01/28 01:11:29;;;;;;;16.27;7.20;;;;;;;2.48;88.43;102889.34;4951167;28;20031;-94
2023/01/28 01:13:59;;;;;;;16.45;7.85;;;;;;;2.47;88.11;102895.25;4951327;28;20365;-95
2023/01/28 01:16:35;;;;;;;15.30;7.50;;;;;;;2.46;88.50;102890.88;4967809;28;20062;-94
2023/01/28 01:19:00;;;;;;;15.70;7.70;;;;;;;2.46;88.71;102896.00;4950972;28;20085;-95
2023/01/28 01:21:28;;;;;;;16.02;7.80;;;;;;;2.46;89.14;102890.88;4950212;28;20031;-94
2023/01/28 01:23:53;;;;;;;16.38;7.70;;;;;;;2.51;88.88;102894.78;4950795;28;20089;-95
2023/01/28 01:26:22;;;;;;;19.45;8.32;;;;;;;2.52;88.46;102896.59;4949891;28;20588;-94
2023/01/28 01:28:47;;;;;;;18.35;8.30;;;;;;;2.52;88.74;102894.00;4949937;28;20067;-95
2023/01/28 01:31:16;;;;;;;16.90;8.30;;;;;;;2.51;88.49;102887.06;4950048;28;20038;-94
2023/01/28 01:33:46;;;;;;;17.17;7.78;;;;;;;2.46;87.80;102883.16;4949886;28;20023;-95
2023/01/28 01:36:14;;;;;;;17.33;8.18;;;;;;;2.46;87.98;102885.72;4952702;28;20042;-95
2023/01/28 01:38:42;;;;;;;17.67;8.27;;;;;;;2.44;87.62;102885.59;4950775;28;20031;-94
2023/01/28 01:41:14;;;;;;;16.85;7.93;;;;;;;2.42;87.82;102881.09;4951729;28;20022;-94
2023/01/28 01:43:54;;;;;;;17.25;7.65;;;;;;;2.40;87.96;102882.59;4946445;28;20392;-95
2023/01/28 01:46:49;;;;;;;17.58;7.80;;;;;;;2.42;88.03;102891.38;4947268;28;20033;-94
2023/01/28 01:49:21;;;;;;;16.25;7.97;;;;;;;2.43;87.86;102893.16;4964518;28;20035;-94
2023/01/28 01:51:53;;;;;;;15.82;7.13;;;;;;;2.38;87.65;102895.34;4947172;28;20042;-95
2023/01/28 01:54:28;;;;;;;16.38;7.75;;;;;;;2.40;88.04;102898.97;4947024;28;20085;-94
2023/01/28 01:56:54;;;;;;;19.20;8.25;;;;;;;2.40;87.90;102898.03;4942265;28;20023;-94
2023/01/28 01:59:26;;;;;;;18.67;7.72;;;;;;;2.40;88.01;102885.19;4946180;28;20030;-95
2023/01/28 02:01:52;;;;;;;16.98;7.35;;;;;;;2.39;88.29;102892.00;4946260;28;20037;-94
2023/01/28 02:04:24;;;;;;;15.80;7.93;;;;;;;2.39;88.27;102903.94;4962763;28;20030;-95
2023/01/28 02:06:50;;;;;;;19.08;8.18;;;;;;;2.40;87.54;102904.13;4947551;28;20030;-94
2023/01/28 02:09:31;;;;;;;18.85;8.40;;;;;;;2.40;87.35;102898.03;4947610;28;20487;-94
2023/01/28 02:12:12;;;;;;;16.77;7.68;;;;;;;2.43;87.48;102895.75;4946150;28;20037;-94
2023/01/28 02:14:43;;;;;;;17.13;7.90;;;;;;;2.41;86.87;102900.75;4947575;28;20034;-95
2023/01/28 02:17:08;;;;;;;16.38;7.65;;;;;;;2.41;87.64;102903.31;4947509;28;20451;-94
2023/01/28 02:19:45;;;;;;;18.75;8.52;;;;;;;2.42;87.93;102907.72;4945721;28;20023;-93
2023/01/28 02:22:28;;;;;;;17.88;8.18;;;;;;;2.45;87.77;102907.09;4941592;28;20978;-94
2023/01/28 02:25:32;;;;;;;17.33;8.15;;;;;;;2.46;87.96;102897.69;4945883;28;20026;-95
2023/01/28 02:28:34;;;;;;;15.93;7.30;;;;;;;2.42;88.23;102894.84;4947225;28;20027;-95
2023/01/28 02:31:08;;;;;;;17.35;7.45;;;;;;;2.37;87.22;102893.50;4944808;28;20058;-94
2023/01/28 02:33:55;;;;;;;18.77;7.70;;;;;;;2.36;87.96;102895.97;4946638;28;20030;-94
2023/01/28 02:36:50;;;;;;;17.15;7.53;;;;;;;2.35;88.03;102894.19;4958708;28;20041;-96
2023/01/28 02:39:21;;;;;;;17.55;8.10;;;;;;;2.34;87.90;102902.66;4963604;28;20395;-96
2023/01/28 02:42:03;;;;;;;17.60;8.23;;;;;;;2.31;88.31;102897.22;4947180;28;20133;-96
2023/01/28 02:44:28;;;;;;;16.13;7.38;;;;;;;2.28;88.98;102899.53;4947001;28;20045;-96
2023/01/28 02:49:46;;;;;;;19.20;8.50;;;;;;;2.22;88.00;102887.91;4964130;28;20077;-96
2023/01/28 02:55:29;;;;;;;16.33;7.88;;;;;;;2.23;87.61;102899.09;4964309;28;20054;-96
2023/01/28 02:58:28;;;;;;;16.38;7.72;;;;;;;2.24;88.39;102906.94;4946399;28;20518;-96
2023/01/28 03:01:00;;;;;;;17.70;8.48;;;;;;;2.23;88.54;102904.22;4941421;28;20435;-96
2023/01/28 03:03:34;;;;;;;17.20;8.15;;;;;;;2.21;88.85;102895.47;4946639;28;20512;-96
2023/01/28 03:06:06;;;;;;;18.08;7.63;;;;;;;2.18;88.57;102911.53;4946710;28;20077;-96
2023/01/28 03:39:15;;;;;;;14.82;7.45;;;;;;;2.09;87.30;102913.28;4967511;28;20070;-96
2023/01/28 03:42:02;;;;;;;14.70;6.28;;;;;;;2.08;87.77;102908.88;4949656;28;20074;-96
2023/01/28 03:47:12;;;;;;;14.18;6.47;;;;;;;2.05;87.69;102911.19;4967763;28;20113;-96
2023/01/28 03:49:51;;;;;;;12.80;6.65;;;;;;;2.07;86.88;102913.13;4949579;28;20038;-96
2023/01/28 03:52:22;;;;;;;12.63;6.18;;;;;;;2.07;87.02;102908.00;4945898;28;20039;-96
2023/01/28 03:54:48;;;;;;;13.90;6.75;;;;;;;2.07;87.80;102908.00;4950280;28;20031;-96
2023/01/28 03:57:15;;;;;;;16.40;7.28;;;;;;;2.05;87.12;102906.94;4950194;28;20026;-96
2023/01/28 03:59:41;;;;;;;16.50;8.07;;;;;;;2.04;87.83;102912.88;4949487;28;20019;-96
2023/01/28 04:02:07;;;;;;;15.50;7.45;;;;;;;2.05;88.33;102926.63;4949363;28;20041;-96
2023/01/28 04:04:33;;;;;;;17.45;8.00;;;;;;;2.02;89.14;102924.66;4949920;28;20042;-96
2023/01/28 04:07:00;;;;;;;16.30;7.90;;;;;;;2.02;89.25;102927.22;4949434;28;20031;-96
2023/01/28 04:09:26;;;;;;;16.95;8.13;;;;;;;2.03;89.49;102931.63;4949385;28;20037;-96
2023/01/28 04:11:51;;;;;;;18.95;7.85;;;;;;;2.04;89.42;102929.94;4949513;28;20039;-96
2023/01/28 04:14:19;;;;;;;17.20;7.97;;;;;;;2.00;90.08;102930.41;4949035;28;20014;-96
2023/01/28 04:16:45;;;;;;;19.13;8.43;;;;;;;1.98;90.14;102938.00;4966985;28;20065;-96
2023/01/28 04:19:12;;;;;;;17.42;8.05;;;;;;;1.94;89.90;102942.72;4950095;28;20396;-96
2023/01/28 04:21:38;;;;;;;17.58;8.07;;;;;;;1.94;90.45;102937.56;4948995;28;20118;-96
2023/01/28 04:24:04;;;;;;;16.33;7.68;;;;;;;1.92;90.59;102935.75;4948495;28;20548;-96
2023/01/28 04:26:29;;;;;;;17.20;7.70;;;;;;;1.92;90.68;102929.72;4948729;28;20039;-96
2023/01/28 04:28:54;;;;;;;18.30;8.02;;;;;;;1.94;90.43;102932.44;4949262;28;20974;-96
2023/01/28 04:31:20;;;;;;;16.42;7.55;;;;;;;1.90;90.34;102932.16;4948891;28;20018;-96
2023/01/28 04:33:45;;;;;;;18.55;8.02;;;;;;;1.89;90.63;102934.59;4949725;28;20022;-96
2023/01/28 04:36:11;;;;;;;19.80;8.65;;;;;;;1.84;90.87;102931.59;4947952;28;20041;-96
2023/01/28 04:38:36;;;;;;;17.95;8.07;;;;;;;1.85;91.32;102930.81;4948640;28;20034;-96
2023/01/28 04:41:02;;;;;;;16.88;7.70;;;;;;;1.87;91.11;102925.84;4944050;28;20614;-96
2023/01/28 04:43:27;;;;;;;19.17;8.10;;;;;;;1.88;91.12;102923.41;4960937;28;20034;-96
2023/01/28 04:45:52;;;;;;;17.13;7.90;;;;;;;1.89;91.03;102927.75;4949087;28;20162;-96
2023/01/28 04:48:18;;;;;;;16.85;7.43;;;;;;;1.92;90.59;102929.72;4948980;28;20029;-96
2023/01/28 04:50:44;;;;;;;18.45;8.27;;;;;;;1.96;91.23;102923.22;4949018;28;20031;-96
2023/01/28 04:53:12;;;;;;;18.08;8.18;;;;;;;1.95;90.39;102922.28;4948830;28;20116;-96
2023/01/28 04:55:38;;;;;;;18.00;7.97;;;;;;;1.97;90.86;102928.50;4949018;28;20041;-96
2023/01/28 04:58:03;;;;;;;18.20;7.68;;;;;;;1.97;90.96;102925.00;4947226;28;20030;-96
2023/01/28 05:00:31;;;;;;;17.45;7.93;;;;;;;1.98;90.93;102937.09;4948631;28;20039;-96
2023/01/28 05:02:59;;;;;;;18.05;8.35;;;;;;;1.94;91.43;102928.22;4949145;28;20041;-96
2023/01/28 05:05:24;;;;;;;20.30;8.25;;;;;;;1.89;91.65;102932.91;4948707;28;21051;-96
2023/01/28 05:07:52;;;;;;;18.80;8.32;;;;;;;1.90;91.40;102939.88;4948527;28;20081;-96
2023/01/28 05:10:18;;;;;;;18.98;8.75;;;;;;;1.89;91.37;102938.03;4947559;28;20057;-96
2023/01/28 05:12:44;;;;;;;18.27;7.88;;;;;;;1.88;91.56;102935.34;4947889;28;20483;-96
2023/01/28 05:15:09;;;;;;;17.33;7.78;;;;;;;1.87;91.75;102934.44;4947098;28;20019;-96
2023/01/28 05:17:35;;;;;;;19.35;8.18;;;;;;;1.83;90.66;102929.78;4947465;28;20113;-96
2023/01/28 05:20:00;;;;;;;17.20;7.85;;;;;;;1.82;91.36;102943.38;4948541;28;20493;-95
2023/01/28 05:22:27;;;;;;;19.75;8.18;;;;;;;1.79;90.82;102942.19;4948687;28;20070;-96
2023/01/28 05:24:52;;;;;;;17.23;8.05;;;;;;;1.79;91.30;102940.53;4948431;28;20104;-96
2023/01/28 05:27:18;;;;;;;17.48;7.60;;;;;;;1.79;91.30;102942.19;4945426;28;20512;-96
2023/01/28 05:29:53;;;;;;;18.20;8.32;;;;;;;1.77;90.65;102939.50;4947719;28;21053;-96
2023/01/28 05:32:18;;;;;;;18.33;8.18;;;;;;;1.76;90.76;102934.22;4947199;28;20034;-96
2023/01/28 05:34:44;;;;;;;18.73;7.53;;;;;;;1.74;90.72;102926.38;4948732;28;20510;-96
2023/01/28 05:37:09;;;;;;;17.48;7.65;;;;;;;1.72;90.83;102940.72;4948658;28;20560;-96
2023/01/28 05:39:34;;;;;;;17.38;8.07;;;;;;;1.70;90.83;102929.41;4948026;28;20077;-96
2023/01/28 05:42:00;;;;;;;17.40;7.72;;;;;;;1.69;91.43;102928.47;4947810;28;20097;-96
2023/01/28 05:44:25;;;;;;;19.50;8.35;;;;;;;1.71;91.61;102931.22;4943494;28;20031;-96
2023/01/28 05:46:54;;;;;;;19.63;7.88;;;;;;;1.71;90.72;102932.13;4947264;28;20026;-96
2023/01/28 05:49:22;;;;;;;17.70;8.20;;;;;;;1.67;91.11;102923.97;4960023;28;20057;-96
2023/01/28 05:51:47;;;;;;;17.92;7.82;;;;;;;1.66;89.89;102929.88;4958910;28;20088;-96
2023/01/28 05:54:13;;;;;;;16.58;7.80;;;;;;;1.65;90.56;102928.06;4947298;28;20036;-96
2023/01/28 05:56:39;;;;;;;16.98;7.63;;;;;;;1.63;90.18;102932.16;4947136;28;20035;-96
2023/01/28 05:59:04;;;;;;;15.77;6.93;;;;;;;1.56;89.48;102935.81;4947083;28;20030;-96
2023/01/28 06:01:30;;;;;;;14.85;6.88;;;;;;;1.54;87.84;102937.34;4947002;28;20042;-96
2023/01/28 06:03:55;;;;;;;16.02;7.18;;;;;;;1.50;88.55;102933.56;4947779;28;20444;-96
2023/01/28 06:06:23;;;;;;;14.10;6.90;;;;;;;1.50;88.20;102946.41;4947254;28;20054;-96
2023/01/28 06:08:51;;;;;;;14.60;6.90;;;;;;;1.48;88.01;102945.38;4948044;28;20360;-96
2023/01/28 06:11:16;;;;;;;15.98;7.20;;;;;;;1.49;87.89;102949.75;4947817;28;20559;-96
2023/01/28 06:13:42;;;;;;;14.13;6.35;;;;;;;1.50;87.28;102948.09;4947497;28;20113;-96
2023/01/28 06:16:07;;;;;;;14.45;7.00;;;;;;;1.49;87.46;102948.84;4959633;28;20089;-96
2023/01/28 06:18:35;;;;;;;13.70;6.43;;;;;;;1.46;85.65;102948.56;4946302;28;20095;-96
2023/01/28 06:21:00;;;;;;;15.80;7.25;;;;;;;1.43;85.54;102950.84;4946660;28;20401;-96
2023/01/28 06:23:26;;;;;;;14.57;6.97;;;;;;;1.46;85.49;102949.44;4946520;28;20029;-96
2023/01/28 06:25:55;;;;;;;15.32;7.10;;;;;;;1.48;86.39;102950.50;4949465;28;20030;-96
2023/01/28 06:28:21;;;;;;;16.02;7.25;;;;;;;1.53;85.93;102959.53;4949014;28;20073;-96
2023/01/28 06:30:54;;;;;;;14.73;6.95;;;;;;;1.56;85.53;102947.00;4959209;28;20031;-96
2023/01/28 06:33:23;;;;;;;16.65;6.70;;;;;;;1.55;85.11;102945.19;4946473;28;20031;-96
2023/01/28 06:35:48;;;;;;;14.98;7.18;;;;;;;1.53;85.62;102948.38;4958487;28;20031;-96
2023/01/28 06:38:16;;;;;;;17.98;7.88;;;;;;;1.54;84.84;102955.31;4946787;28;20026;-96
2023/01/28 06:40:41;;;;;;;17.85;7.60;;;;;;;1.53;83.93;102951.84;4946852;28;20049;-96
2023/01/28 06:43:07;;;;;;;19.05;8.02;;;;;;;1.51;84.75;102952.47;4946929;28;20047;-96
2023/01/28 06:45:35;;;;;;;17.08;8.18;;;;;;;1.52;84.74;102950.03;4960169;28;20038;-96
2023/01/28 06:48:01;;;;;;;17.45;7.50;;;;;;;1.52;85.18;102955.19;4946672;28;20027;-96
2023/01/28 06:50:26;;;;;;;16.48;7.50;;;;;;;1.52;84.59;102960.31;4946765;28;20033;-96
2023/01/28 06:52:52;;;;;;;16.83;7.80;;;;;;;1.51;84.54;102967.88;4947295;28;20455;-96
2023/01/28 06:55:17;;;;;;;16.55;7.55;;;;;;;1.47;84.55;102956.41;4947649;28;20027;-96
2023/01/28 06:57:45;;;;;;;17.02;7.13;;;;;;;1.44;84.03;102958.69;4947280;28;20031;-96
2023/01/28 07:00:14;;;;;;;16.77;7.30;;;;;;;1.46;84.68;102969.09;4948102;28;20038;-96
2023/01/28 07:02:39;;;;;;;17.63;7.47;;;;;;;1.46;85.95;102957.16;4947592;28;20090;-96
2023/01/28 07:05:08;;;;;;;20.27;8.93;;;;;;;1.51;84.94;102966.22;4946757;28;20010;-96
2023/01/28 07:07:34;;;;;;;20.97;8.57;;;;;;;1.51;83.86;102963.63;4948209;28;20099;-96
2023/01/28 07:09:59;;;;;;;17.13;7.75;;;;;;;1.49;84.13;102969.38;4951374;28;20034;-96
2023/01/28 07:12:27;;;;;;;16.38;7.57;;;;;;;1.51;85.17;102968.78;4966543;28;20030;-96
2023/01/28 07:14:55;;;;;;;14.55;7.10;;;;;;;1.52;85.03;102969.66;4951157;28;20460;-96
2023/01/28 07:17:23;;;;;;;16.48;7.70;;;;;;;1.53;84.55;102971.50;4951893;28;20113;-96
2023/01/28 07:19:49;;;;;;;16.80;7.80;;;;;;;1.51;84.30;102979.06;4950761;28;20025;-96
2023/01/28 07:22:14;;;;;;;17.02;7.43;;;;;;;1.48;84.17;102989.03;4950548;28;20027;-96
2023/01/28 07:24:39;;;;;;;17.00;7.72;;;;;;;1.47;84.42;102992.38;4951891;28;20030;-96
2023/01/28 07:27:05;;;;;;;19.65;9.15;;;;;;;1.48;84.17;102994.19;4950570;28;20033;-96
2023/01/28 07:29:30;;;;;;;17.40;7.72;;;;;;;1.47;83.48;103001.75;4950549;28;20058;-96
2023/01/28 07:31:55;;;;;;;19.00;8.43;;;;;;;1.45;83.58;102996.47;4950559;28;20065;-96
2023/01/28 07:34:21;;;;;;;16.33;7.60;;;;;;;1.46;83.76;103005.06;4967252;28;20594;-96
2023/01/28 07:36:49;;;;;;;19.55;8.88;;;;;;;1.47;83.78;103007.78;4951009;28;20050;-96
2023/01/28 07:39:15;;;;;;;17.83;8.60;;;;;;;1.47;84.34;103000.06;4949304;28;20038;-96
2023/01/28 07:41:43;;;;;;;15.48;7.05;;;;;;;1.44;83.85;103004.91;4948026;28;20038;-96
2023/01/28 07:44:08;;;;;;;17.73;7.57;;;;;;;1.41;82.93;103002.06;4950301;28;20027;-96
2023/01/28 07:46:33;;;;;;;18.00;7.75;;;;;;;1.39;82.76;102998.41;4948929;28;20124;-94
2023/01/28 07:49:01;;;;;;;16.58;7.38;;;;;;;1.37;83.27;103006.00;4964362;28;20971;-94
2023/01/28 07:51:29;;;;;;;15.90;7.47;;;;;;;1.35;82.78;103006.63;4949770;28;20029;-94
2023/01/28 07:53:58;;;;;;;17.35;7.78;;;;;;;1.35;82.64;103012.66;4949358;28;20023;-94
2023/01/28 07:56:28;;;;;;;16.30;7.43;;;;;;;1.37;82.80;103020.50;4948813;28;20030;-94
2023/01/28 07:58:56;;;;;;;15.73;7.65;;;;;;;1.35;82.65;103017.78;4949306;28;20029;-94
2023/01/28 08:01:21;;;;;;;16.50;7.88;;;;;;;1.34;83.18;103025.34;4949644;28;20026;-95
2023/01/28 08:03:49;;;;;;;16.55;8.10;;;;;;;1.34;82.53;103020.22;4948302;28;20049;-94
2023/01/28 08:06:15;;;;;;;17.20;8.07;;;;;;;1.34;82.45;103020.22;4948854;28;20037;-94
2023/01/28 08:08:40;;;;;;;19.48;8.60;;;;;;;1.35;82.81;103016.91;4949043;28;20022;-95
2023/01/28 08:11:09;;;;;;;17.88;8.27;;;;;;;1.37;82.82;103020.50;4948564;28;20031;-95
2023/01/28 08:13:35;;;;;;;16.63;7.88;;;;;;;1.39;83.12;103017.34;4949546;28;20019;-94
2023/01/28 08:16:01;;;;;;;19.35;7.93;;;;;;;1.37;82.80;103030.78;4949199;28;20030;-94
2023/01/28 08:18:26;;;;;;;18.17;8.45;;;;;;;1.39;83.39;103031.81;4948907;28;20322;-94
2023/01/28 08:20:56;;;;;;;17.67;8.05;;;;;;;1.42;82.95;103033.78;4949055;28;20965;-94
2023/01/28 08:23:21;;;;;;;18.42;7.75;;;;;;;1.45;82.68;103040.13;4946534;28;20506;-96
2023/01/28 08:25:47;;;;;;;16.90;7.50;;;;;;;1.48;82.37;103050.69;4952326;28;20121;-96
2023/01/28 08:28:14;;;;;;;20.83;8.63;;;;;;;1.52;83.45;103054.44;4949768;28;20142;-96
2023/01/28 08:30:45;;;;;;;16.50;7.82;;;;;;;1.53;83.01;103043.44;4951850;28;20137;-96
2023/01/28 08:33:13;;;;;;;19.38;7.72;;;;;;;1.52;82.82;103052.81;4950583;28;20035;-96
2023/01/28 08:35:42;;;;;;;16.60;7.97;;;;;;;1.51;83.22;103056.13;4949321;28;20057;-96
2023/01/28 08:38:09;;;;;;;19.50;8.68;;;;;;;1.54;83.36;103047.81;4945501;28;20025;-96
2023/01/28 08:40:39;;;;;;;20.08;9.07;;;;;;;1.55;82.61;103052.19;4962679;28;20030;-96
2023/01/28 08:43:04;;;;;;;21.23;8.48;;;;;;;1.56;82.71;103065.19;4952966;28;20105;-96
2023/01/28 08:45:30;;;;;;;19.83;8.70;;;;;;;1.61;82.67;103065.63;4903989;23;20059;-96
2023/01/28 08:48:04;;;;;;;18.05;8.55;;;;;;;1.63;82.12;103058.06;4968227;28;20110;-96
2023/01/28 08:50:32;;;;;;;18.88;8.38;;;;;;;1.66;81.80;103063.50;4972287;28;20037;-96
2023/01/28 08:53:03;;;;;;;17.08;7.82;;;;;;;1.69;82.19;103063.78;4975766;28;20061;-96
2023/01/28 08:55:29;;;;;;;16.02;7.72;;;;;;;1.67;82.24;103061.06;4974685;28;20030;-96
2023/01/28 08:57:55;;;;;;;17.65;8.05;;;;;;;1.65;82.47;103064.25;4979682;28;20096;-96
2023/01/28 09:00:21;;;;;;;17.98;8.15;;;;;;;1.65;82.63;103079.66;4977309;28;20583;-95
2023/01/28 09:02:52;;;;;;;15.93;7.43;;;;;;;1.63;83.40;103071.81;4976104;28;20027;-96
2023/01/28 09:05:21;;;;;;;16.95;7.78;;;;;;;1.69;82.95;103076.63;4987183;28;20046;-96
2023/01/28 09:07:47;;;;;;;18.70;8.50;;;;;;;1.73;82.43;103071.03;4977000;28;20058;-94
2023/01/28 09:10:15;;;;;;;18.40;8.10;;;;;;;1.75;81.98;103069.50;4978117;28;20058;-96
2023/01/28 09:12:41;;;;;;;17.98;8.18;;;;;;;1.79;82.19;103081.88;4973715;28;20046;-95
2023/01/28 09:15:07;;;;;;;15.52;7.90;;;;;;;1.81;82.66;103084.59;4975090;28;20425;-96
2023/01/28 09:17:32;;;;;;;18.73;8.48;;;;;;;1.80;82.58;103085.38;4976925;28;20113;-96
2023/01/28 09:19:58;;;;;;;18.60;8.80;;;;;;;1.81;83.62;103082.97;4974613;28;20628;-96
2023/01/28 09:22:23;;;;;;;16.98;8.23;;;;;;;1.82;82.97;103096.72;4967598;28;20034;-96
2023/01/28 09:24:49;;;;;;;19.60;8.70;;;;;;;1.80;82.74;103088.84;4976698;28;20030;-96
2023/01/28 09:27:14;;;;;;;18.02;8.48;;;;;;;1.77;81.90;103080.84;4978584;28;20033;-96
2023/01/28 09:29:40;;;;;;;17.88;8.32;;;;;;;1.74;81.16;103081.47;4970537;28;20026;-96
2023/01/28 09:32:06;;;;;;;18.38;8.80;;;;;;;1.69;81.98;103094.63;4970443;28;20027;-96
2023/01/28 09:34:32;;;;;;;17.40;8.60;;;;;;;1.66;81.51;103096.91;4970814;28;20030;-96
2023/01/28 09:36:58;;;;;;;18.63;8.43;;;;;;;1.65;82.60;103101.16;4972521;28;20410;-96
2023/01/28 09:39:24;;;;;;;18.65;8.70;;;;;;;1.65;83.42;103107.94;4971323;28;20030;-96
2023/01/28 09:42:05;;;;;;;18.20;8.10;;;;;;;1.65;83.08;103103.72;4970254;28;20512;-96
2023/01/28 09:45:15;;;;;;;17.63;7.95;;;;;;;1.71;83.64;103113.69;4973631;28;20039;-96
2023/01/28 09:47:52;;;;;;;17.52;8.10;;;;;;;1.71;84.18;103109.44;4963545;28;20022;-96
2023/01/28 09:50:40;;;;;;;19.88;9.30;;;;;;;1.73;84.29;103102.78;4957861;28;20027;-96
2023/01/28 09:53:18;;;;;;;16.77;7.88;;;;;;;1.78;83.83;103100.63;4965195;28;20025;-96
2023/01/28 09:56:08;;;;;;;18.08;8.25;;;;;;;1.78;84.90;103105.78;4977556;28;20496;-96
2023/01/28 09:58:36;;;;;;;18.15;8.38;;;;;;;1.80;82.74;103121.38;4963926;28;20030;-96
2023/01/28 10:01:19;;;;;;;18.73;8.48;;;;;;;1.77;84.25;103110.78;4964406;28;20364;-96
2023/01/28 10:04:02;;;;;;;18.50;8.25;;;;;;;1.77;84.27;103116.84;4974063;28;20026;-95
2023/01/28 10:07:05;;;;;;;18.90;8.38;;;;;;;1.77;82.73;103131.31;4955925;28;20038;-94
2023/01/28 10:09:57;;;;;;;17.95;8.38;;;;;;;1.72;81.63;103129.25;4959998;28;20205;-96
2023/01/28 10:12:41;;;;;;;19.77;8.93;;;;;;;1.74;83.38;103131.97;4986812;28;20048;-96
2023/01/28 10:15:19;;;;;;;15.10;8.00;;;;;;;1.73;83.11;103131.03;4978356;28;20066;-96
2023/01/28 10:17:51;;;;;;;16.35;7.68;;;;;;;1.67;82.03;103127.88;4965007;28;20041;-94
2023/01/28 10:20:37;;;;;;;17.35;8.20;;;;;;;1.63;83.02;103132.59;4968963;28;20015;-96
2023/01/28 10:23:40;;;;;;;17.52;8.45;;;;;;;1.66;83.14;103135.44;4987680;28;20051;-96
2023/01/28 10:26:35;;;;;;;15.98;7.82;;;;;;;1.62;81.69;103139.38;4981962;28;20018;-96
2023/01/28 10:29:12;;;;;;;17.08;7.97;;;;;;;1.65;82.89;103137.13;4966188;28;20480;-95
2023/01/28 10:31:52;;;;;;;16.95;8.20;;;;;;;1.62;82.80;103135.91;4975947;28;20053;-96
2023/01/28 10:34:22;;;;;;;16.38;7.78;;;;;;;1.62;82.72;103131.66;4967202;28;20022;-96
2023/01/28 10:36:49;;;;;;;16.83;7.85;;;;;;;1.62;82.21;103130.78;4975913;28;20049;-96
2023/01/28 10:39:23;;;;;;;17.20;7.85;;;;;;;1.59;82.35;103121.09;4978637;28;20022;-96
2023/01/28 10:41:49;;;;;;;19.38;8.02;;;;;;;1.61;82.52;103126.38;4978992;28;20034;-96
2023/01/28 10:44:40;;;;;;;16.33;7.45;;;;;;;1.65;82.26;103123.34;4973317;28;20038;-96
2023/01/28 10:49:46;;;;;;;16.00;7.32;;;;;;;1.73;85.31;103119.88;5043338;23;20065;-96
2023/01/28 10:52:14;;;;;;;14.68;7.15;;;;;;;1.75;84.35;103108.06;4976900;28;20033;-96
2023/01/28 10:54:39;;;;;;;16.67;7.45;;;;;;;1.76;83.01;103120.16;4993960;28;20030;-96
2023/01/28 10:57:15;;;;;;;16.55;7.60;;;;;;;1.72;83.31;103115.47;4993177;28;20079;-96
2023/01/28 10:59:41;;;;;;;16.40;7.72;;;;;;;1.74;84.40;103122.59;4975353;28;20026;-96
2023/01/28 11:02:28;;;;;;;16.30;7.53;;;;;;;1.76;85.00;103127.88;4974788;28;20022;-96
2023/01/28 11:05:26;;;;;;;14.65;6.72;;;;;;;1.74;83.57;103127.72;4978198;28;20018;-96
2023/01/28 11:08:04;;;;;;;17.02;7.40;;;;;;;1.72;82.53;103128.31;4976140;28;20109;-96
2023/01/28 11:10:35;;;;;;;17.42;7.45;;;;;;;1.69;82.26;103122.91;4983607;28;20088;-96
2023/01/28 11:13:06;;;;;;;17.42;7.50;;;;;;;1.72;84.03;103112.91;4984093;28;20045;-96
2023/01/28 11:15:33;;;;;;;17.17;7.60;;;;;;;1.74;83.42;103112.31;4979136;28;20121;-96
2023/01/28 11:18:19;;;;;;;15.30;7.35;;;;;;;1.80;85.07;103111.97;4983209;28;20026;-96
2023/01/28 11:20:55;;;;;;;17.65;7.85;;;;;;;1.81;83.17;103106.09;4996634;28;20030;-96
2023/01/28 11:23:27;;;;;;;16.83;7.50;;;;;;;1.77;82.72;103105.63;4977636;28;20497;-96
2023/01/28 11:28:30;;;;;;;16.80;7.45;;;;;;;1.80;83.85;103091.41;4970091;28;20051;-96
2023/01/28 11:36:21;;;;;;;17.35;8.45;;;;;;;1.95;84.78;103073.06;4381058;23;20172;-96
2023/01/28 11:39:10;;;;;;;16.13;7.50;;;;;;;1.97;83.74;103076.69;5184827;23;20055;-96
2023/01/28 11:58:37;;;;;;;17.42;7.72;;;;;;;2.09;80.48;103023.84;5004654;23;20046;-96
2023/01/28 12:01:16;;;;;;;18.15;8.15;;;;;;;2.05;79.39;103014.94;4956397;28;20174;-96
2023/01/28 12:03:46;;;;;;;15.52;7.72;;;;;;;2.06;80.43;103003.00;4952292;28;20093;-96
2023/01/28 12:06:26;;;;;;;17.88;7.78;;;;;;;2.06;81.24;102985.00;4959307;28;20085;-95
2023/01/28 12:09:07;;;;;;;17.65;8.65;;;;;;;2.03;81.19;102984.72;4952972;28;20034;-96
2023/01/28 12:14:55;;;;;;;10.98;5.88;;;;;;;1.95;78.94;102991.69;4971948;28;20065;-96
2023/01/28 12:17:44;;;;;;;14.38;6.75;;;;;;;1.92;80.04;102984.59;4952433;28;20031;-96
2023/01/28 12:20:27;;;;;;;14.93;7.45;;;;;;;1.90;80.36;102986.13;4969360;28;20030;-96
2023/01/28 12:23:04;;;;;;;14.57;6.97;;;;;;;1.99;80.89;102977.47;4969991;28;20094;-96
2023/01/28 12:25:42;;;;;;;15.70;7.28;;;;;;;2.07;80.60;102980.00;4972006;28;21012;-96
2023/01/28 12:28:29;;;;;;;14.82;6.72;;;;;;;2.20;80.83;103002.63;4972159;28;20027;-96
2023/01/28 12:31:30;;;;;;;15.20;7.28;;;;;;;2.34;79.77;103000.41;4979424;28;20034;-96
2023/01/28 12:34:26;;;;;;;17.17;7.30;;;;;;;2.41;78.78;103000.19;4979862;28;20499;-96
2023/01/28 12:37:03;;;;;;;16.15;7.68;;;;;;;2.47;80.81;103023.00;4989755;28;20062;-96
2023/01/28 12:39:52;;;;;;;15.18;7.43;;;;;;;2.50;79.99;103029.34;4976664;28;20054;-96
2023/01/28 12:42:36;;;;;;;17.42;7.75;;;;;;;2.50;78.61;103021.63;4971185;28;20103;-96
2023/01/28 12:45:32;;;;;;;15.02;7.25;;;;;;;2.54;79.16;103020.25;4973713;28;20053;-96
2023/01/28 12:48:12;;;;;;;12.90;6.55;;;;;;;2.54;77.97;103031.44;4985563;28;20026;-96
2023/01/28 12:51:01;;;;;;;12.63;6.45;;;;;;;2.55;78.54;103033.25;4979669;23;20101;-96